Alpena, MI

1:32 PM EST on December 10, 2016 (GMT -0500)
Lincoln Elementary School | | Change Station

Elev 587 ft 45.07 °N, 83.43 °W | Updated 19 seconds ago

Overcast
Overcast
24.6 °F
Feels Like 15 °F
N
8.9
Wind Variable Wind from South
Gusts 12.3 mph

Today
High -- | Low -- °F
--% Chance of Precip.
Yesterday
High -- | Low -- °F
Precip. -- in
Pressure 30.31 in
Visibility 9.0 miles
Clouds Few 2700 ft
Scattered Clouds 3100 ft
Overcast 4500 ft
Windchill 15 °F
Dew Point 10 °F
Humidity 53%
Rainfall 0.00 in
Snow Depth Not available.
8:01 AM 4:51 PM
Waxing Gibbous, 85% visible
SPECI KAPN 101807Z AUTO 27011KT 9SM FEW027 SCT031 OVC045 M04/M11 A3031 RMK AO2 T10441106
Pressure 30.31 in
Visibility 9.0 miles
Clouds Few 2700 ft
Scattered Clouds 3100 ft
Overcast 4500 ft
Windchill 15 °F
Dew Point 10 °F
Humidity 53%
Rainfall 0.00 in
Snow Depth Not available.
8:01 AM 4:51 PM
Waxing Gibbous, 85% visible
SPECI KAPN 101807Z AUTO 27011KT 9SM FEW027 SCT031 OVC045 M04/M11 A3031 RMK AO2 T10441106

10-Day Weather Forecast

Almanac

Astronomy

Dec. 10, 2016 Rise Set
Actual Time
Civil Twilight
Nautical Twilight
Astronomical Twilight
Moon
Length of Visible Light
Length of Day
Tomorrow will be .
, % of the Moon is Illuminated

Today's Extremes

State Highs State Lows

Community

WunderPhotos

Upload Photos

1,956,617 photos uploaded!

WunderBlog® & News

Nearby

Air Quality

  Air Quality AQ Index Pollutant
Not available.

Snow Depth

Station Depth Elevation

Earthquake Activity

City Distance Mag. Time & Date
Minimum magnitude displayed is 2.5.

Coastal Water Temperatures

Place Temperature

Stations

Nearby Weather Stations

Station Location Temp. Windchill Dew Point Humidity Wind Precip. Elev Updated Type
                   

Watches & Warnings

There are currently no watches in effect.